Time;durP1;ratioP1;P1;durP2;ratioP2;P2;SDS_P1;SDS_P2;PMS_P1;PMS_P2;Temp;Humidity;BMP_temperature;BMP_pressure;BME280_temperature;BME280_humidity;BME280_pressure;Samples;Min_cycle;Max_cycle;Signal;HPM_P1;HPM_P2
2022/04/02 00:01:15;;;;;;;;;6.75;6.25;;;;;4.08;56.83;101142.25;6250135;22;45144;-84
2022/04/02 00:03:41;;;;;;;;;10.00;9.00;;;;;4.20;56.57;101173.00;6222006;22;47520;-84
2022/04/02 00:06:07;;;;;;;;;7.25;7.25;;;;;3.94;56.92;101139.25;6249035;22;45367;-83
2022/04/02 00:08:34;;;;;;;;;7.25;7.25;;;;;3.97;56.31;101147.13;6222638;22;44705;-84
2022/04/02 00:11:00;;;;;;;;;4.00;4.00;;;;;4.07;56.67;101173.47;6250897;22;45379;-84
2022/04/02 00:13:25;;;;;;;;;8.50;6.25;;;;;4.10;56.41;101174.44;6223268;22;46858;-84
2022/04/02 00:15:51;;;;;;;;;15.00;10.00;;;;;3.89;56.51;101135.63;6223665;22;45338;-83
2022/04/02 00:18:16;;;;;;;;;7.25;6.00;;;;;4.00;56.12;101148.94;6251245;22;44683;-83
2022/04/02 00:20:42;;;;;;;;;6.75;5.00;;;;;4.08;56.32;101163.09;6224137;22;45172;-84
2022/04/02 00:25:51;;;;;;;;;5.75;5.75;;;;;4.10;55.64;101166.63;6252984;22;45206;-85
2022/04/02 00:28:17;;;;;;;;;5.75;5.00;;;;;4.13;55.47;101173.66;6225112;22;45121;-84
2022/04/02 00:30:43;;;;;;;;;4.00;4.00;;;;;4.19;55.16;101184.25;6252217;22;45216;-85
2022/04/02 00:33:10;;;;;;;;;3.25;3.25;;;;;4.03;55.36;101156.84;6223165;22;47187;-84
2022/04/02 00:35:39;;;;;;;;;2.50;2.50;;;;;4.07;55.00;101155.25;6224718;22;45359;-85
2022/04/02 00:38:05;;;;;;;;;4.75;4.75;;;;;3.95;54.38;101134.91;6251370;22;45142;-85
2022/04/02 00:40:31;;;;;;;;;5.75;5.75;;;;;4.01;54.63;101142.94;6250628;22;45237;-84
2022/04/02 00:42:56;;;;;;;;;7.25;6.25;;;;;4.19;54.07;101176.44;6222645;22;48242;-84
2022/04/02 00:45:22;;;;;;;;;6.75;4.25;;;;;4.07;54.30;101163.94;6223574;22;45134;-85
2022/04/02 00:47:47;;;;;;;;;4.00;4.00;;;;;4.16;53.75;101179.81;6222931;22;45214;-85
2022/04/02 00:50:13;;;;;;;;;8.00;5.00;;;;;3.98;53.54;101161.94;6249023;22;46040;-85
2022/04/02 00:52:39;;;;;;;;;4.50;4.50;;;;;3.98;53.14;101148.94;6223410;22;45194;-84
2022/04/02 00:55:06;;;;;;;;;3.00;3.00;;;;;3.95;52.96;101150.53;6223732;22;45400;-85
2022/04/02 00:57:31;;;;;;;;;4.00;2.25;;;;;3.93;53.26;101147.03;6250281;22;45289;-83
2022/04/02 00:59:57;;;;;;;;;9.50;4.00;;;;;3.87;53.19;101133.81;6223190;22;45359;-84
2022/04/02 01:02:22;;;;;;;;;2.50;2.50;;;;;3.84;53.33;101131.97;6228784;22;48124;-84
2022/04/02 01:04:48;;;;;;;;;5.00;4.50;;;;;4.02;53.40;101168.13;6224700;22;45546;-84
2022/04/02 01:07:19;;;;;;;;;6.50;5.00;;;;;4.01;53.52;101174.19;6249752;22;45326;-85
2022/04/02 01:09:45;;;;;;;;;1.50;1.50;;;;;3.82;52.49;101145.78;6222101;22;45380;-84
2022/04/02 01:12:11;;;;;;;;;2.00;2.00;;;;;3.87;52.40;101157.25;6249595;22;45264;-84
2022/04/02 01:14:36;;;;;;;;;2.75;2.75;;;;;3.95;52.71;101185.28;6222039;22;45466;-84
2022/04/02 01:17:04;;;;;;;;;4.50;3.75;;;;;3.93;52.94;101176.56;6222983;22;45402;-84
2022/04/02 01:19:30;;;;;;;;;5.50;2.75;;;;;3.78;52.70;101139.63;6225740;22;45332;-85
2022/04/02 01:21:55;;;;;;;;;5.00;4.00;;;;;3.79;52.44;101145.72;6226083;22;46109;-85
2022/04/02 01:24:21;;;;;;;;;7.25;4.25;;;;;3.69;53.30;101132.44;6256692;22;45172;-85
2022/04/02 01:26:47;;;;;;;;;3.00;3.00;;;;;3.79;52.94;101162.22;6256413;22;45240;-85
2022/04/02 01:29:12;;;;;;;;;7.50;7.00;;;;;3.66;52.73;101145.34;6226191;22;45225;-83
2022/04/02 01:31:45;;;;;;;;;3.25;3.25;;;;;3.76;53.02;101164.72;6226370;22;46054;-84
2022/04/02 01:34:13;;;;;;;;;3.00;3.00;;;;;3.54;52.77;101130.22;6227869;22;45205;-85
2022/04/02 01:36:41;;;;;;;;;2.50;1.50;;;;;3.56;52.75;101139.81;6225644;22;45196;-83
2022/04/02 01:39:10;;;;;;;;;3.75;1.00;;;;;3.76;53.08;101178.63;6251158;22;45816;-85
2022/04/02 01:41:39;;;;;;;;;5.75;3.00;;;;;3.75;53.49;101178.59;6226840;22;46901;-84
2022/04/02 01:44:04;;;;;;;;;1.00;1.00;;;;;3.56;53.08;101161.53;6225771;22;45157;-84
2022/04/02 01:46:30;;;;;;;;;4.00;4.00;;;;;3.63;53.02;101163.47;6253343;22;45430;-85
2022/04/02 01:48:55;;;;;;;;;5.00;5.00;;;;;3.51;53.25;101155.28;6253780;22;45627;-84
2022/04/02 01:51:21;;;;;;;;;4.00;4.00;;;;;3.41;53.00;101153.22;6256155;22;46250;-84
2022/04/02 01:53:46;;;;;;;;;7.25;4.25;;;;;3.36;53.29;101154.78;6256053;22;45394;-86
2022/04/02 01:56:12;;;;;;;;;5.00;5.00;;;;;3.51;52.90;101181.31;6233336;22;45288;-85
2022/04/02 01:58:38;;;;;;;;;5.25;5.00;;;;;3.28;53.06;101152.81;6265137;22;45488;-84
2022/04/02 02:01:06;;;;;;;;;4.00;4.00;;;;;3.40;53.57;101160.16;6239663;22;46613;-84
2022/04/02 02:03:31;;;;;;;;;5.00;5.00;;;;;3.31;53.51;101160.75;6239869;22;44620;-83
2022/04/02 02:05:57;;;;;;;;;0.25;0.00;;;;;3.51;53.91;101192.59;6241641;22;44691;-85
2022/04/02 02:08:23;;;;;;;;;4.00;4.00;;;;;3.50;53.85;101205.56;6240300;22;44728;-85
2022/04/02 02:10:49;;;;;;;;;6.50;4.50;;;;;3.48;53.87;101199.44;6240248;22;46883;-82
2022/04/02 02:13:15;;;;;;;;;1.50;1.50;;;;;3.22;53.75;101150.03;6238819;22;44798;-84
2022/04/02 02:15:40;;;;;;;;;5.00;5.00;;;;;3.46;53.89;101199.38;6237454;22;45400;-86
2022/04/02 02:18:06;;;;;;;;;5.50;4.50;;;;;3.44;53.65;101200.16;6225441;22;45240;-85
2022/04/02 02:20:32;;;;;;;;;3.00;3.00;;;;;3.31;53.91;101191.06;6225135;22;47928;-85
2022/04/02 02:22:57;;;;;;;;;6.50;6.00;;;;;3.29;53.66;101200.56;6224795;22;45376;-87
2022/04/02 02:25:23;;;;;;;;;8.00;6.50;;;;;3.33;53.75;101198.94;6252021;22;45198;-83
2022/04/02 02:27:48;;;;;;;;;6.50;5.00;;;;;3.20;53.99;101187.22;6222295;22;45365;-86
2022/04/02 02:30:15;;;;;;;;;5.25;4.25;;;;;3.08;53.82;101167.78;6250290;22;45537;-85
2022/04/02 02:32:41;;;;;;;;;5.00;3.75;;;;;3.07;54.25;101175.53;6222773;22;45268;-86
2022/04/02 02:38:10;;;;;;;;;4.00;4.00;;;;;3.22;54.52;101212.47;6250351;22;45166;-85
2022/04/02 02:40:37;;;;;;;;;7.00;5.25;;;;;3.03;54.21;101199.66;6222804;22;46122;-84
2022/04/02 02:43:04;;;;;;;;;5.00;5.00;;;;;3.00;54.90;101190.03;6224256;22;45119;-85
2022/04/02 02:45:31;;;;;;;;;8.00;8.00;;;;;2.99;54.79;101200.38;6218741;22;45309;-85
2022/04/02 02:47:58;;;;;;;;;4.00;4.00;;;;;3.12;54.97;101228.59;6219916;22;45189;-86
2022/04/02 02:50:24;;;;;;;;;6.00;4.50;;;;;2.84;55.31;101182.56;6219814;22;45276;-85
2022/04/02 02:52:49;;;;;;;;;7.25;7.25;;;;;3.13;55.16;101234.66;6220325;22;45366;-85
2022/04/02 02:55:15;;;;;;;;;5.00;5.00;;;;;3.13;55.48;101239.88;6221137;22;45163;-84
2022/04/02 02:57:42;;;;;;;;;8.25;6.00;;;;;2.93;55.54;101197.59;6221357;22;45187;-85
2022/04/02 03:00:08;;;;;;;;;6.00;5.75;;;;;3.08;55.52;101230.22;6221582;22;45237;-86
2022/04/02 03:02:37;;;;;;;;;9.00;5.75;;;;;2.93;55.20;101202.78;6217664;22;45219;-83
2022/04/02 03:05:05;;;;;;;;;5.50;4.50;;;;;3.06;55.78;101234.47;6220064;22;45205;-85
2022/04/02 03:07:36;;;;;;;;;8.75;5.00;;;;;2.91;55.40;101204.44;6222537;22;45134;-85
2022/04/02 03:10:01;;;;;;;;;6.00;6.00;;;;;2.84;55.68;101200.75;6221781;22;48400;-85
2022/04/02 03:12:27;;;;;;;;;5.50;5.25;;;;;2.95;55.67;101227.13;6221179;22;45384;-83
2022/04/02 03:14:53;;;;;;;;;5.75;4.50;;;;;2.87;55.89;101219.94;6218401;22;45402;-82
2022/04/02 03:17:28;;;;;;;;;6.50;5.00;;;;;2.82;55.75;101210.22;6217318;22;45349;-86
2022/04/02 03:19:54;;;;;;;;;8.00;6.00;;;;;2.94;55.86;101234.06;6217417;22;46884;-83
2022/04/02 03:22:20;;;;;;;;;8.50;8.00;;;;;2.72;55.96;101195.13;6216485;22;45421;-83
2022/04/02 03:24:46;;;;;;;;;9.00;9.00;;;;;2.90;55.68;101228.69;6217432;22;45227;-83
2022/04/02 03:27:11;;;;;;;;;5.75;5.75;;;;;2.92;55.91;101234.81;6219062;22;45423;-83
2022/04/02 03:29:37;;;;;;;;;4.25;4.25;;;;;2.97;55.84;101244.56;6217140;22;47410;-83
2022/04/02 03:32:03;;;;;;;;;8.00;8.00;;;;;2.87;55.85;101232.06;6216785;22;45221;-84
2022/04/02 03:34:29;;;;;;;;;5.00;5.00;;;;;2.92;55.63;101247.84;6217377;22;45383;-84
2022/04/02 03:36:57;;;;;;;;;6.00;6.00;;;;;2.83;56.09;101235.38;6218294;22;45178;-84
2022/04/02 03:39:22;;;;;;;;;6.00;6.00;;;;;2.72;56.02;101226.31;6219127;22;46368;-85
2022/04/02 03:41:48;;;;;;;;;7.75;7.75;;;;;2.85;56.17;101250.19;6218496;22;45385;-83
2022/04/02 03:44:16;;;;;;;;;7.00;6.00;;;;;2.75;56.21;101236.81;6220571;22;45374;-84
2022/04/02 03:49:26;;;;;;;;;8.50;5.50;;;;;2.68;56.04;101224.44;6249684;22;45232;-83
2022/04/02 03:51:52;;;;;;;;;8.25;6.50;;;;;2.78;56.51;101248.22;6250085;22;45235;-83
2022/04/02 03:54:18;;;;;;;;;6.25;6.25;;;;;2.57;56.34;101224.94;6222500;22;45218;-83
2022/04/02 03:56:43;;;;;;;;;6.50;5.50;;;;;2.64;56.34;101244.22;6250382;22;45107;-84
2022/04/02 03:59:11;;;;;;;;;5.50;5.50;;;;;2.69;56.41;101249.59;6249720;22;46212;-83
2022/04/02 04:01:37;;;;;;;;;8.00;4.75;;;;;2.76;56.50;101256.78;6249220;22;45358;-82
2022/04/02 04:04:04;;;;;;;;;2.75;2.75;;;;;2.75;56.57;101258.47;6250368;22;45265;-83
2022/04/02 04:06:31;;;;;;;;;5.75;5.25;;;;;2.67;56.59;101246.03;6259794;22;45489;-82
2022/04/02 04:08:58;;;;;;;;;9.75;7.00;;;;;2.64;56.55;101233.81;6259179;22;46150;-83
2022/04/02 04:11:25;;;;;;;;;7.75;6.25;;;;;2.74;56.81;101258.44;6232054;22;45181;-82
2022/04/02 04:13:51;;;;;;;;;5.75;5.00;;;;;2.75;56.88;101261.09;6253880;22;44758;-83
2022/04/02 04:16:16;;;;;;;;;4.75;4.75;;;;;2.57;56.50;101229.25;6250378;22;45546;-84
2022/04/02 04:18:42;;;;;;;;;8.00;6.00;;;;;2.68;57.24;101260.84;6249922;22;45280;-83
2022/04/02 04:21:07;;;;;;;;;6.00;6.00;;;;;2.54;56.76;101236.91;6221869;22;45545;-82
2022/04/02 04:23:34;;;;;;;;;8.00;7.00;;;;;2.74;56.93;101271.44;6221341;22;45375;-83
2022/04/02 04:26:00;;;;;;;;;7.00;7.00;;;;;2.63;57.40;101258.06;6248408;22;45471;-83
2022/04/02 04:28:26;;;;;;;;;4.25;4.25;;;;;2.43;57.09;101227.03;6248346;22;45251;-84
2022/04/02 04:30:51;;;;;;;;;7.50;7.50;;;;;2.54;57.16;101247.31;6221954;22;45302;-84
2022/04/02 04:33:17;;;;;;;;;4.00;4.00;;;;;2.71;56.89;101279.13;6221502;22;45242;-84
2022/04/02 04:35:42;;;;;;;;;4.00;4.00;;;;;2.56;56.98;101262.13;6221594;22;45549;-83
2022/04/02 04:38:07;;;;;;;;;7.75;6.50;;;;;2.37;57.09;101238.91;6221483;22;46577;-84
2022/04/02 04:40:33;;;;;;;;;6.50;6.50;;;;;2.52;57.33;101265.47;6249641;22;45179;-84
2022/04/02 04:42:58;;;;;;;;;10.25;7.50;;;;;2.56;57.45;101269.03;6248756;22;45178;-83
2022/04/02 04:45:24;;;;;;;;;7.00;7.00;;;;;2.50;57.50;101269.69;6220559;22;45444;-84
2022/04/02 04:47:49;;;;;;;;;5.25;5.25;;;;;2.51;57.35;101274.06;6246671;22;47252;-84
2022/04/02 04:50:15;;;;;;;;;4.75;4.00;;;;;2.40;57.13;101273.66;6248709;22;45373;-84
2022/04/02 04:52:41;;;;;;;;;9.00;8.00;;;;;2.47;57.00;101284.31;6249207;22;45402;-84
2022/04/02 04:55:06;;;;;;;;;5.50;5.50;;;;;2.39;57.51;101264.09;6249174;22;45393;-83
2022/04/02 04:57:32;;;;;;;;;8.00;8.00;;;;;2.47;57.32;101289.50;6223548;22;46319;-83
2022/04/02 04:59:57;;;;;;;;;12.00;9.00;;;;;2.33;57.40;101279.47;6223270;22;45222;-84
2022/04/02 05:02:23;;;;;;;;;5.25;5.25;;;;;2.39;57.37;101282.28;6223664;22;45275;-83
2022/04/02 05:04:51;;;;;;;;;9.00;6.00;;;;;2.43;57.48;101291.06;6223744;22;45458;-85
2022/04/02 05:07:18;;;;;;;;;8.00;8.00;;;;;2.56;57.49;101313.22;6250939;22;45335;-84
2022/04/02 05:09:45;;;;;;;;;8.75;6.25;;;;;2.38;57.34;101290.03;6251367;22;45193;-85
2022/04/02 05:12:16;;;;;;;;;6.25;6.25;;;;;2.49;57.51;101300.84;6225294;22;45400;-84
2022/04/02 05:14:42;;;;;;;;;8.50;8.50;;;;;2.57;57.79;101323.69;6254545;22;45161;-84
2022/04/02 05:17:07;;;;;;;;;6.50;6.25;;;;;2.58;57.75;101334.97;6226398;22;48188;-85
2022/04/02 05:19:33;;;;;;;;;11.25;11.00;;;;;2.53;57.47;101329.59;6223231;22;45186;-86
2022/04/02 05:22:01;;;;;;;;;9.25;8.00;;;;;2.51;57.34;101330.34;6251111;22;45147;-84
2022/04/02 05:24:26;;;;;;;;;5.50;5.00;;;;;2.41;57.66;101304.03;6250764;22;45473;-84
2022/04/02 05:26:52;;;;;;;;;11.25;9.00;;;;;2.51;57.35;101327.75;6223036;22;45356;-83
2022/04/02 05:29:18;;;;;;;;;10.75;9.00;;;;;2.48;57.15;101335.44;6222308;22;45344;-84
2022/04/02 05:31:44;;;;;;;;;8.00;8.00;;;;;2.54;57.34;101344.38;6223511;22;45303;-84
2022/04/02 05:34:10;;;;;;;;;7.75;5.75;;;;;2.53;57.55;101341.69;6251064;22;45418;-84
2022/04/02 05:36:41;;;;;;;;;7.75;6.00;;;;;2.53;57.29;101341.69;6223739;22;46659;-84
2022/04/02 05:39:07;;;;;;;;;6.75;5.25;;;;;2.45;57.42;101332.72;6251159;22;45401;-84
2022/04/02 05:41:32;;;;;;;;;6.25;6.25;;;;;2.37;57.36;101325.50;6250682;22;45281;-83
2022/04/02 05:43:58;;;;;;;;;4.00;4.00;;;;;2.51;57.53;101357.22;6221426;22;45414;-84
2022/04/02 05:46:23;;;;;;;;;8.00;8.00;;;;;2.35;57.03;101323.69;6220460;22;47033;-84
2022/04/02 05:48:49;;;;;;;;;11.00;9.50;;;;;2.20;57.41;101306.69;6220814;22;45399;-83
2022/04/02 05:51:14;;;;;;;;;8.00;6.00;;;;;2.27;57.59;101312.97;6248574;22;45260;-85
2022/04/02 05:53:41;;;;;;;;;6.00;5.00;;;;;2.39;57.27;101333.38;6248406;22;45171;-84
2022/04/02 05:56:08;;;;;;;;;10.25;9.00;;;;;2.42;57.40;101338.69;6246386;22;47630;-85
2022/04/02 05:58:37;;;;;;;;;8.00;6.25;;;;;2.46;57.10;101351.00;6220560;22;45259;-85
2022/04/02 06:01:03;;;;;;;;;5.00;5.00;;;;;2.48;57.77;101351.03;6221103;22;45315;-85
2022/04/02 06:03:29;;;;;;;;;7.50;7.00;;;;;2.53;57.78;101358.16;6221313;22;45439;-86
2022/04/02 06:05:55;;;;;;;;;5.00;5.00;;;;;2.60;57.42;101374.91;6248543;22;46068;-85
2022/04/02 06:08:20;;;;;;;;;9.00;7.25;;;;;2.61;57.33;101374.94;6220691;22;45241;-86
2022/04/02 06:10:46;;;;;;;;;4.50;4.50;;;;;2.40;57.43;101332.53;6221992;22;45226;-86
2022/04/02 06:13:12;;;;;;;;;10.75;8.25;;;;;2.60;57.30;101375.78;6250319;22;45170;-86
2022/04/02 06:15:37;;;;;;;;;5.00;5.00;;;;;2.42;57.52;101334.38;6221793;22;46148;-85
2022/04/02 06:18:11;;;;;;;;;6.00;6.00;;;;;2.71;57.38;101381.41;6249628;22;45174;-82
2022/04/02 06:20:37;;;;;;;;;4.75;4.00;;;;;2.57;57.60;101346.19;6220528;22;45179;-82
2022/04/02 06:23:03;;;;;;;;;5.50;5.50;;;;;2.57;57.61;101354.00;6219835;22;45216;-82
2022/04/02 06:25:28;;;;;;;;;8.25;6.50;;;;;2.73;57.96;101387.56;6220459;22;47914;-83
2022/04/02 06:27:54;;;;;;;;;5.50;5.50;;;;;2.76;57.62;101381.59;6219401;22;45187;-82
2022/04/02 06:30:23;;;;;;;;;6.25;6.25;;;;;2.81;58.07;101391.31;6220281;22;45103;-82
2022/04/02 06:32:48;;;;;;;;;10.25;6.50;;;;;2.85;57.71;101392.31;6247915;22;45588;-81
2022/04/02 06:35:18;;;;;;;;;8.00;5.25;;;;;2.72;58.04;101374.47;6247436;22;45386;-82
2022/04/02 06:37:43;;;;;;;;;8.75;8.50;;;;;2.88;58.17;101402.84;6247330;22;45142;-83
2022/04/02 06:40:09;;;;;;;;;7.00;7.00;;;;;2.79;58.06;101382.56;6220030;22;45402;-83
2022/04/02 06:42:36;;;;;;;;;10.50;8.50;;;;;2.74;57.74;101370.22;6247098;22;45437;-82
2022/04/02 06:45:03;;;;;;;;;10.00;8.50;;;;;2.93;58.10;101401.28;6247527;22;45690;-83
2022/04/02 06:47:30;;;;;;;;;9.25;8.25;;;;;2.96;58.38;101406.59;6219880;22;45339;-83
2022/04/02 06:49:56;;;;;;;;;9.00;8.00;;;;;2.88;58.18;101387.22;6220214;22;45150;-82
2022/04/02 06:52:23;;;;;;;;;12.25;7.50;;;;;3.03;58.33;101418.16;6220013;22;45241;-81
2022/04/02 06:54:49;;;;;;;;;9.00;7.00;;;;;3.02;58.38;101406.88;6219853;22;47739;-82
2022/04/02 06:57:19;;;;;;;;;11.25;8.25;;;;;3.06;58.35;101419.13;6219767;22;45333;-81
2022/04/02 06:59:44;;;;;;;;;7.00;5.50;;;;;3.12;58.33;101417.59;6220554;22;45301;-81
2022/04/02 07:02:10;;;;;;;;;6.00;6.00;;;;;3.15;58.43;101413.38;6247010;22;45217;-82
2022/04/02 07:04:35;;;;;;;;;7.75;5.50;;;;;2.99;58.26;101396.31;6219219;22;48496;-82
2022/04/02 07:07:01;;;;;;;;;6.00;6.00;;;;;3.26;57.82;101442.41;6219586;22;45248;-83
2022/04/02 07:09:26;;;;;;;;;5.00;5.00;;;;;3.17;57.58;101414.34;6219652;22;45215;-83
2022/04/02 07:11:51;;;;;;;;;7.00;7.00;;;;;3.24;58.08;101418.06;6219626;22;45233;-83
2022/04/02 07:14:17;;;;;;;;;5.25;5.00;;;;;3.39;58.08;101433.34;6218951;22;46974;-83
2022/04/02 07:16:43;;;;;;;;;5.75;5.75;;;;;3.23;57.86;101398.94;6247241;22;45162;-82
2022/04/02 07:19:09;;;;;;;;;4.00;4.00;;;;;3.28;57.98;101409.53;6218596;22;45290;-83
2022/04/02 07:21:35;;;;;;;;;8.75;8.75;;;;;3.38;57.75;101424.66;6246801;22;45382;-83
2022/04/02 07:24:05;;;;;;;;;5.75;5.75;;;;;3.51;57.61;101424.25;6218799;22;46897;-83
2022/04/02 07:26:32;;;;;;;;;6.00;6.00;;;;;3.52;57.43;101420.81;6219789;22;45802;-84
2022/04/02 07:28:59;;;;;;;;;6.25;5.25;;;;;3.72;57.28;101441.50;6220281;22;45279;-83
2022/04/02 07:31:25;;;;;;;;;7.25;7.00;;;;;3.73;57.35;101440.63;6246211;22;45353;-83
2022/04/02 07:33:50;;;;;;;;;8.75;6.00;;;;;3.78;56.79;101440.81;6245798;22;46366;-83
2022/04/02 07:36:18;;;;;;;;;4.75;3.25;;;;;3.85;56.86;101442.78;6245850;22;45308;-83
2022/04/02 07:38:58;;;;;;;;;6.75;5.25;;;;;3.82;56.72;101433.13;6247214;22;45371;-83
2022/04/02 07:42:00;;;;;;;;;3.75;3.25;;;;;3.93;55.33;101444.84;6246519;22;45197;-83
2022/04/02 07:45:04;;;;;;;;;5.00;4.50;;;;;3.96;55.01;101444.94;6218411;22;46221;-84
2022/04/02 07:47:32;;;;;;;;;5.25;5.25;;;;;3.85;55.25;101430.66;6219367;22;45395;-83
2022/04/02 07:50:03;;;;;;;;;4.50;4.50;;;;;4.05;55.01;101449.56;6219325;22;45182;-83
2022/04/02 07:52:29;;;;;;;;;8.50;7.25;;;;;4.07;54.80;101449.63;6246962;22;45641;-82
2022/04/02 07:55:00;;;;;;;;;5.00;5.00;;;;;4.10;54.71;101447.13;6219029;22;46194;-84
2022/04/02 07:57:41;;;;;;;;;8.00;6.00;;;;;4.16;54.17;101439.50;6246176;22;45367;-83
2022/04/02 08:00:10;;;;;;;;;6.75;5.25;;;;;4.16;53.61;101436.91;6218899;22;45203;-82
2022/04/02 08:02:38;;;;;;;;;5.75;4.50;;;;;4.32;52.85;101448.72;6246023;22;44842;-83
2022/04/02 08:05:10;;;;;;;;;5.25;5.25;;;;;4.39;53.33;101446.38;6218588;22;46149;-82
2022/04/02 08:07:38;;;;;;;;;1.00;1.00;;;;;4.36;52.54;101433.25;6218572;22;45481;-83
2022/04/02 08:10:08;;;;;;;;;5.00;5.00;;;;;4.63;52.31;101463.66;6218930;22;45357;-82
2022/04/02 08:12:38;;;;;;;;;2.00;2.00;;;;;4.67;52.61;101462.03;6246873;22;45384;-82
2022/04/02 08:15:07;;;;;;;;;5.00;5.00;;;;;4.71;51.48;101456.09;6245913;22;46309;-82
2022/04/02 08:17:33;;;;;;;;;3.50;3.50;;;;;4.77;51.18;101446.72;6218141;22;45199;-82
2022/04/02 08:20:01;;;;;;;;;7.00;5.00;;;;;4.93;50.95;101460.22;6246205;22;45270;-83
2022/04/02 08:22:27;;;;;;;;;4.00;4.00;;;;;4.89;50.17;101456.63;6246472;22;45323;-83
2022/04/02 08:24:54;;;;;;;;;7.00;7.00;;;;;4.83;49.52;101440.78;6218296;22;47103;-83
2022/04/02 08:27:33;;;;;;;;;3.50;3.50;;;;;5.02;49.24;101470.94;6245103;22;45352;-83
2022/04/02 08:30:09;;;;;;;;;3.50;3.50;;;;;4.88;47.57;101438.34;6217845;22;45316;-83
2022/04/02 08:32:54;;;;;;;;;4.00;4.00;;;;;4.96;48.83;101442.94;6219275;22;45391;-83
2022/04/02 08:36:02;;;;;;;;;6.50;6.00;;;;;5.17;48.89;101454.88;6244871;22;45442;-83
2022/04/02 08:38:43;;;;;;;;;3.50;3.50;;;;;5.33;47.64;101459.69;6128743;23;45391;-84
2022/04/02 08:41:26;;;;;;;;;5.00;5.00;;;;;5.47;46.66;101458.34;6242008;22;45181;-86
2022/04/02 08:44:04;;;;;;;;;6.00;5.00;;;;;5.62;47.67;101470.97;6220010;22;45356;-83
2022/04/02 08:46:48;;;;;;;;;1.75;1.50;;;;;5.69;46.73;101482.47;6246628;22;45178;-82
2022/04/02 08:49:29;;;;;;;;;3.50;3.00;;;;;5.73;45.68;101477.38;6218637;22;45224;-83
2022/04/02 08:52:22;;;;;;;;;2.75;2.75;;;;;5.58;46.24;101456.06;6219200;22;45304;-84
2022/04/02 08:55:07;;;;;;;;;10.00;7.75;;;;;5.86;45.82;101485.56;6216553;22;45615;-86
2022/04/02 08:57:48;;;;;;;;;4.00;4.00;;;;;5.91;45.93;101476.13;6256163;22;45347;-93
2022/04/02 09:00:23;;;;;;;;;3.25;2.75;;;;;5.79;45.51;101466.22;6251086;22;45211;-92
2022/04/02 09:03:14;;;;;;;;;2.00;2.00;;;;;5.97;45.44;101492.88;6225887;22;45205;-83
2022/04/02 09:09:59;;;;;;;;;4.75;3.75;;;;;6.08;44.73;101477.50;6253792;22;45333;-91
2022/04/02 09:12:30;;;;;;;;;3.00;3.00;;;;;6.04;44.91;101498.28;6131367;23;45243;-88
2022/04/02 09:15:46;;;;;;;;;2.25;2.25;;;;;6.08;44.60;101492.28;6208195;22;45186;-86
2022/04/02 09:18:21;;;;;;;;;5.00;2.25;;;;;6.09;44.73;101496.66;6222296;22;45381;-86
2022/04/02 09:20:56;;;;;;;;;6.25;4.50;;;;;6.04;44.56;101490.44;6219971;22;46490;-85
2022/04/02 09:23:41;;;;;;;;;2.25;2.25;;;;;6.17;44.67;101498.66;6219549;22;45288;-83
2022/04/02 09:26:57;;;;;;;;;5.00;4.25;;;;;6.34;45.48;101491.25;6245789;22;45209;-84
2022/04/02 09:29:44;;;;;;;;;4.50;2.50;;;;;6.47;45.07;101495.06;6219504;22;45461;-84
2022/04/02 09:32:40;;;;;;;;;1.50;1.50;;;;;6.56;44.53;101494.41;6218357;22;45564;-85
2022/04/02 09:35:39;;;;;;;;;4.25;3.50;;;;;6.57;44.01;101504.88;6246335;22;45375;-86
2022/04/02 09:38:05;;;;;;;;;13.25;9.25;;;;;6.58;43.13;101490.97;6220059;22;45196;-86
2022/04/02 09:40:52;;;;;;;;;6.25;4.25;;;;;6.66;43.70;101499.03;6218709;22;45263;-87
2022/04/02 09:43:31;;;;;;;;;3.00;3.00;;;;;6.63;44.15;101478.91;6217665;22;46073;-86
2022/04/02 09:46:21;;;;;;;;;2.75;2.00;;;;;6.73;42.74;101514.00;6218302;22;45564;-89
2022/04/02 09:49:08;;;;;;;;;6.25;5.00;;;;;6.45;41.30;101467.09;6219586;22;45185;-85
2022/04/02 09:51:36;;;;;;;;;4.00;3.00;;;;;6.64;41.71;101503.31;6219424;22;45203;-87
2022/04/02 09:54:09;;;;;;;;;2.50;2.25;;;;;6.82;42.58;101492.41;6219560;22;46308;-86
2022/04/02 09:56:56;;;;;;;;;3.75;3.75;;;;;6.98;42.02;101476.22;6248644;22;45218;-89
2022/04/02 10:00:05;;;;;;;;;2.00;2.00;;;;;7.34;42.19;101483.09;6253699;22;45221;-88
2022/04/02 10:03:00;;;;;;;;;5.25;5.00;;;;;7.59;40.83;101499.34;6215531;22;45633;-88
2022/04/02 10:06:14;;;;;;;;;3.50;3.00;;;;;7.64;38.44;101488.09;6233076;22;45334;-92
2022/04/02 10:09:04;;;;;;;;;2.25;2.00;;;;;7.56;38.89;101484.44;6206395;22;45358;-90
2022/04/02 10:12:16;;;;;;;;;1.50;1.50;;;;;7.64;38.47;101493.34;6182308;22;45406;-88
2022/04/02 10:22:50;;;;;;;;;;;;;;;;;;;;;
2022/04/02 10:25:19;;;;;;;;;1.75;1.75;;;;;7.82;36.96;101484.97;6128940;22;69907;-89
2022/04/02 10:27:45;;;;;;;;;2.00;2.00;;;;;8.01;36.32;101507.16;6223883;22;45389;-90
2022/04/02 10:30:16;;;;;;;;;1.25;1.25;;;;;8.11;37.10;101498.63;6224503;22;47359;-88
2022/04/02 10:40:48;;;;;;;;;;;;;;;;;;;;;
2022/04/02 11:08:26;;;;;;;;;2.00;1.00;;;;;8.60;34.81;101480.25;6010404;23;45398;-86
2022/04/02 11:11:34;;;;;;;;;;;;;;;;;;;;;
2022/04/02 11:14:59;;;;;;;;;;;;;;;;;;;;;
2022/04/02 11:17:47;;;;;;;;;1.50;1.50;;;;;7.98;33.43;101486.13;5987162;23;67939;-88
2022/04/02 11:20:30;;;;;;;;;6.00;3.00;;;;;7.98;34.41;101480.91;6116464;22;45427;-86
2022/04/02 11:23:37;;;;;;;;;4.00;3.25;;;;;8.15;34.36;101489.97;6217174;22;46158;-87
2022/04/02 11:26:06;;;;;;;;;3.25;3.25;;;;;8.42;34.32;101478.22;6168226;22;45293;-86
2022/04/02 11:28:54;;;;;;;;;4.00;4.00;;;;;8.71;33.72;101481.31;6188687;22;45290;-86
2022/04/02 11:31:31;;;;;;;;;3.50;3.50;;;;;8.96;33.93;101468.56;6212894;22;45468;-89
2022/04/02 11:34:19;;;;;;;;;2.00;2.00;;;;;9.25;33.92;101487.38;6217340;22;46128;-88
2022/04/02 11:36:47;;;;;;;;;5.50;5.00;;;;;9.47;33.53;101472.75;6190098;22;45273;-86
2022/04/02 11:39:37;;;;;;;;;2.50;2.00;;;;;9.60;33.00;101485.19;6217685;22;45339;-87
2022/04/02 11:42:04;;;;;;;;;3.75;3.00;;;;;9.39;32.08;101458.66;6220375;22;45142;-86
2022/04/02 11:44:39;;;;;;;;;4.75;4.75;;;;;9.19;31.64;101472.38;6194222;22;46958;-87
2022/04/02 11:47:07;;;;;;;;;4.75;4.00;;;;;9.18;32.32;101475.88;6208991;22;45889;-88
2022/04/02 11:49:43;;;;;;;;;4.00;3.25;;;;;9.45;31.71;101491.13;6224898;22;45202;-88
2022/04/02 11:52:17;;;;;;;;;3.00;2.75;;;;;9.55;31.66;101480.75;6224397;22;45442;-85
2022/04/02 11:54:49;;;;;;;;;2.00;2.00;;;;;9.78;32.08;101496.78;6222365;22;47352;-84
2022/04/02 11:57:17;;;;;;;;;3.00;3.00;;;;;9.77;31.17;101495.91;6259504;22;45091;-84
2022/04/02 11:59:57;;;;;;;;;3.25;3.25;;;;;9.74;31.35;101490.63;6265387;22;44696;-84
2022/04/02 12:02:40;;;;;;;;;2.75;2.75;;;;;9.73;32.23;101502.00;6238497;22;44966;-86
2022/04/02 12:05:08;;;;;;;;;1.25;1.25;;;;;9.54;30.86;101474.59;6264674;22;45328;-88
2022/04/02 12:07:47;;;;;;;;;2.00;1.25;;;;;9.33;30.67;101501.50;6238106;22;45283;-87
2022/04/02 12:10:17;;;;;;;;;4.00;3.00;;;;;9.14;31.07;101495.09;6265281;22;44744;-89
2022/04/02 12:12:50;;;;;;;;;4.50;4.00;;;;;9.23;31.14;101499.59;6238327;22;44765;-87
2022/04/02 12:15:19;;;;;;;;;5.00;5.00;;;;;9.45;31.18;101478.00;6238251;22;46863;-88
2022/04/02 12:18:08;;;;;;;;;2.00;2.00;;;;;9.60;30.39;101495.72;6235537;22;44748;-87
2022/04/02 12:20:42;;;;;;;;;3.00;3.00;;;;;9.77;30.04;101502.91;6254114;22;45340;-86
2022/04/02 12:23:13;;;;;;;;;2.00;2.00;;;;;9.74;29.98;101485.34;6218794;22;45436;-87
2022/04/02 12:25:41;;;;;;;;;2.75;2.75;;;;;10.00;30.22;101487.41;6245153;22;45326;-86
2022/04/02 12:28:22;;;;;;;;;3.00;3.00;;;;;10.33;30.90;101481.63;6247279;22;45408;-89
2022/04/02 12:30:53;;;;;;;;;3.00;3.00;;;;;10.64;29.70;101492.38;6220953;22;44677;-91
2022/04/02 12:33:22;;;;;;;;;4.00;2.00;;;;;10.48;29.82;101473.00;6224226;22;45434;-87
2022/04/02 12:35:59;;;;;;;;;2.25;2.25;;;;;10.27;29.50;101497.31;6248161;22;47135;-88
2022/04/02 12:38:38;;;;;;;;;4.50;2.75;;;;;9.86;29.29;101500.38;6219203;22;45534;-90
2022/04/02 12:41:20;;;;;;;;;2.75;2.75;;;;;9.65;29.51;101504.53;6221440;22;45433;-87
2022/04/02 12:44:17;;;;;;;;;8.50;6.00;;;;;9.70;30.07;101494.06;6221610;22;45431;-87
2022/04/02 12:46:48;;;;;;;;;4.25;3.50;;;;;9.61;30.24;101489.56;6215905;22;47293;-88
2022/04/02 12:49:35;;;;;;;;;5.75;5.00;;;;;9.71;29.26;101507.22;6219477;22;45333;-88